sensor_id;sensor_type;location;lat;lon;timestamp;P1;durP1;ratioP1;P2;durP2;ratioP2
11646;SDS011;5880;52.342;9.662;2023-07-16T00:00:11;1.85;;;1.20;;
11646;SDS011;5880;52.342;9.662;2023-07-16T00:02:37;2.22;;;1.20;;
11646;SDS011;5880;52.342;9.662;2023-07-16T00:05:04;1.23;;;1.13;;
11646;SDS011;5880;52.342;9.662;2023-07-16T00:07:30;1.20;;;1.02;;
11646;SDS011;5880;52.342;9.662;2023-07-16T00:09:56;1.23;;;1.13;;
11646;SDS011;5880;52.342;9.662;2023-07-16T00:12:22;1.45;;;1.30;;
11646;SDS011;5880;52.342;9.662;2023-07-16T00:14:48;1.10;;;1.00;;
11646;SDS011;5880;52.342;9.662;2023-07-16T00:17:14;1.23;;;1.00;;
11646;SDS011;5880;52.342;9.662;2023-07-16T00:19:39;1.30;;;1.20;;
11646;SDS011;5880;52.342;9.662;2023-07-16T00:22:05;1.30;;;1.20;;
11646;SDS011;5880;52.342;9.662;2023-07-16T00:24:31;1.42;;;1.20;;
11646;SDS011;5880;52.342;9.662;2023-07-16T00:26:57;1.40;;;1.30;;
11646;SDS011;5880;52.342;9.662;2023-07-16T00:29:23;1.48;;;1.25;;
11646;SDS011;5880;52.342;9.662;2023-07-16T00:31:48;1.75;;;1.33;;
11646;SDS011;5880;52.342;9.662;2023-07-16T00:34:14;1.17;;;1.08;;
11646;SDS011;5880;52.342;9.662;2023-07-16T00:36:40;1.45;;;1.10;;
11646;SDS011;5880;52.342;9.662;2023-07-16T00:39:06;1.45;;;1.35;;
11646;SDS011;5880;52.342;9.662;2023-07-16T00:41:31;1.30;;;1.20;;
11646;SDS011;5880;52.342;9.662;2023-07-16T00:43:57;1.30;;;1.20;;
11646;SDS011;5880;52.342;9.662;2023-07-16T00:46:23;1.50;;;1.40;;
11646;SDS011;5880;52.342;9.662;2023-07-16T00:48:49;0.95;;;0.93;;
11646;SDS011;5880;52.342;9.662;2023-07-16T00:51:15;1.92;;;1.10;;
11646;SDS011;5880;52.342;9.662;2023-07-16T00:53:43;1.35;;;1.20;;
11646;SDS011;5880;52.342;9.662;2023-07-16T00:56:10;1.58;;;1.10;;
11646;SDS011;5880;52.342;9.662;2023-07-16T00:58:36;1.20;;;1.10;;
11646;SDS011;5880;52.342;9.662;2023-07-16T01:01:02;1.30;;;1.15;;
11646;SDS011;5880;52.342;9.662;2023-07-16T01:03:28;1.15;;;1.05;;
11646;SDS011;5880;52.342;9.662;2023-07-16T01:08:46;1.50;;;1.27;;
11646;SDS011;5880;52.342;9.662;2023-07-16T01:11:22;1.33;;;1.13;;
11646;SDS011;5880;52.342;9.662;2023-07-16T01:13:49;1.25;;;0.90;;
11646;SDS011;5880;52.342;9.662;2023-07-16T01:16:17;1.45;;;1.10;;
11646;SDS011;5880;52.342;9.662;2023-07-16T01:18:48;1.75;;;1.33;;
11646;SDS011;5880;52.342;9.662;2023-07-16T01:21:14;1.30;;;1.20;;
11646;SDS011;5880;52.342;9.662;2023-07-16T01:26:51;1.08;;;0.98;;
11646;SDS011;5880;52.342;9.662;2023-07-16T01:29:35;1.25;;;1.02;;
11646;SDS011;5880;52.342;9.662;2023-07-16T01:32:08;1.30;;;1.20;;
11646;SDS011;5880;52.342;9.662;2023-07-16T01:34:36;1.00;;;1.00;;
11646;SDS011;5880;52.342;9.662;2023-07-16T01:37:04;1.20;;;1.10;;
11646;SDS011;5880;52.342;9.662;2023-07-16T01:39:30;1.30;;;1.13;;
11646;SDS011;5880;52.342;9.662;2023-07-16T01:42:00;1.20;;;1.10;;
11646;SDS011;5880;52.342;9.662;2023-07-16T01:44:27;1.40;;;1.20;;
11646;SDS011;5880;52.342;9.662;2023-07-16T01:49:49;1.20;;;1.10;;
11646;SDS011;5880;52.342;9.662;2023-07-16T01:52:15;1.05;;;0.95;;
11646;SDS011;5880;52.342;9.662;2023-07-16T01:54:41;1.02;;;1.00;;
11646;SDS011;5880;52.342;9.662;2023-07-16T01:57:06;1.13;;;1.02;;
11646;SDS011;5880;52.342;9.662;2023-07-16T01:59:32;2.05;;;1.20;;
11646;SDS011;5880;52.342;9.662;2023-07-16T02:01:58;1.70;;;1.10;;
11646;SDS011;5880;52.342;9.662;2023-07-16T02:04:23;1.73;;;1.30;;
11646;SDS011;5880;52.342;9.662;2023-07-16T02:06:49;1.52;;;1.08;;
11646;SDS011;5880;52.342;9.662;2023-07-16T02:09:15;1.38;;;1.20;;
11646;SDS011;5880;52.342;9.662;2023-07-16T02:11:40;1.75;;;1.00;;
11646;SDS011;5880;52.342;9.662;2023-07-16T02:14:06;1.38;;;1.27;;
11646;SDS011;5880;52.342;9.662;2023-07-16T02:16:32;1.00;;;1.00;;
11646;SDS011;5880;52.342;9.662;2023-07-16T02:18:57;2.15;;;1.20;;
11646;SDS011;5880;52.342;9.662;2023-07-16T02:21:23;1.25;;;1.15;;
11646;SDS011;5880;52.342;9.662;2023-07-16T02:23:49;1.23;;;1.10;;
11646;SDS011;5880;52.342;9.662;2023-07-16T02:26:14;1.20;;;1.10;;
11646;SDS011;5880;52.342;9.662;2023-07-16T02:28:40;1.27;;;1.17;;
11646;SDS011;5880;52.342;9.662;2023-07-16T02:31:06;2.33;;;1.20;;
11646;SDS011;5880;52.342;9.662;2023-07-16T02:33:31;1.30;;;1.10;;
11646;SDS011;5880;52.342;9.662;2023-07-16T02:35:57;3.03;;;1.30;;
11646;SDS011;5880;52.342;9.662;2023-07-16T02:38:23;2.65;;;1.30;;
11646;SDS011;5880;52.342;9.662;2023-07-16T02:40:48;1.45;;;1.20;;
11646;SDS011;5880;52.342;9.662;2023-07-16T02:43:14;1.23;;;1.10;;
11646;SDS011;5880;52.342;9.662;2023-07-16T02:45:40;1.80;;;1.15;;
11646;SDS011;5880;52.342;9.662;2023-07-16T02:48:06;1.23;;;1.13;;
11646;SDS011;5880;52.342;9.662;2023-07-16T02:50:36;1.50;;;1.33;;
11646;SDS011;5880;52.342;9.662;2023-07-16T02:53:06;2.20;;;1.30;;
11646;SDS011;5880;52.342;9.662;2023-07-16T02:55:33;1.33;;;1.10;;
11646;SDS011;5880;52.342;9.662;2023-07-16T02:57:59;1.30;;;1.20;;
11646;SDS011;5880;52.342;9.662;2023-07-16T03:00:30;2.78;;;1.08;;
11646;SDS011;5880;52.342;9.662;2023-07-16T03:02:56;1.65;;;1.30;;
11646;SDS011;5880;52.342;9.662;2023-07-16T03:05:23;3.00;;;1.50;;
11646;SDS011;5880;52.342;9.662;2023-07-16T03:07:49;1.75;;;1.35;;
11646;SDS011;5880;52.342;9.662;2023-07-16T03:10:15;1.58;;;1.25;;
11646;SDS011;5880;52.342;9.662;2023-07-16T03:12:41;1.80;;;1.33;;
11646;SDS011;5880;52.342;9.662;2023-07-16T03:15:07;3.13;;;1.30;;
11646;SDS011;5880;52.342;9.662;2023-07-16T03:17:34;1.30;;;1.20;;
11646;SDS011;5880;52.342;9.662;2023-07-16T03:19:59;1.63;;;1.45;;
11646;SDS011;5880;52.342;9.662;2023-07-16T03:22:25;1.40;;;1.30;;
11646;SDS011;5880;52.342;9.662;2023-07-16T03:24:51;1.23;;;1.13;;
11646;SDS011;5880;52.342;9.662;2023-07-16T03:27:16;1.38;;;1.20;;
11646;SDS011;5880;52.342;9.662;2023-07-16T03:29:42;1.30;;;1.20;;
11646;SDS011;5880;52.342;9.662;2023-07-16T03:32:08;1.83;;;1.30;;
11646;SDS011;5880;52.342;9.662;2023-07-16T03:34:33;1.73;;;1.20;;
11646;SDS011;5880;52.342;9.662;2023-07-16T03:36:59;2.38;;;1.40;;
11646;SDS011;5880;52.342;9.662;2023-07-16T03:39:25;1.20;;;1.10;;
11646;SDS011;5880;52.342;9.662;2023-07-16T03:41:50;1.60;;;1.50;;
11646;SDS011;5880;52.342;9.662;2023-07-16T03:44:16;1.30;;;1.20;;
11646;SDS011;5880;52.342;9.662;2023-07-16T03:46:42;1.40;;;1.10;;
11646;SDS011;5880;52.342;9.662;2023-07-16T03:49:07;1.50;;;1.40;;
11646;SDS011;5880;52.342;9.662;2023-07-16T03:51:33;2.45;;;1.20;;
11646;SDS011;5880;52.342;9.662;2023-07-16T03:53:59;2.08;;;1.30;;
11646;SDS011;5880;52.342;9.662;2023-07-16T03:56:25;1.60;;;1.50;;
11646;SDS011;5880;52.342;9.662;2023-07-16T03:58:51;1.40;;;1.30;;
11646;SDS011;5880;52.342;9.662;2023-07-16T04:01:16;1.45;;;1.35;;
11646;SDS011;5880;52.342;9.662;2023-07-16T04:03:42;1.42;;;1.33;;
11646;SDS011;5880;52.342;9.662;2023-07-16T04:06:08;1.65;;;1.50;;
11646;SDS011;5880;52.342;9.662;2023-07-16T04:08:35;1.50;;;1.30;;
11646;SDS011;5880;52.342;9.662;2023-07-16T04:11:05;1.50;;;1.40;;
11646;SDS011;5880;52.342;9.662;2023-07-16T04:13:31;1.38;;;1.27;;
11646;SDS011;5880;52.342;9.662;2023-07-16T04:15:57;1.50;;;1.40;;
11646;SDS011;5880;52.342;9.662;2023-07-16T04:18:27;1.50;;;1.40;;
11646;SDS011;5880;52.342;9.662;2023-07-16T04:20:53;1.48;;;1.38;;
11646;SDS011;5880;52.342;9.662;2023-07-16T04:23:19;1.27;;;1.13;;
11646;SDS011;5880;52.342;9.662;2023-07-16T04:25:45;1.30;;;1.20;;
11646;SDS011;5880;52.342;9.662;2023-07-16T04:28:11;1.75;;;1.60;;
11646;SDS011;5880;52.342;9.662;2023-07-16T04:30:37;1.40;;;1.30;;
11646;SDS011;5880;52.342;9.662;2023-07-16T04:33:03;2.58;;;1.80;;
11646;SDS011;5880;52.342;9.662;2023-07-16T04:35:29;1.88;;;1.48;;
11646;SDS011;5880;52.342;9.662;2023-07-16T04:37:55;2.72;;;1.45;;
11646;SDS011;5880;52.342;9.662;2023-07-16T04:40:21;1.80;;;1.58;;
11646;SDS011;5880;52.342;9.662;2023-07-16T04:42:47;1.50;;;1.40;;
11646;SDS011;5880;52.342;9.662;2023-07-16T04:45:12;2.45;;;1.63;;
11646;SDS011;5880;52.342;9.662;2023-07-16T04:47:39;1.42;;;1.33;;
11646;SDS011;5880;52.342;9.662;2023-07-16T04:50:05;1.40;;;1.30;;
11646;SDS011;5880;52.342;9.662;2023-07-16T04:52:31;1.60;;;1.40;;
11646;SDS011;5880;52.342;9.662;2023-07-16T04:54:57;1.85;;;1.55;;
11646;SDS011;5880;52.342;9.662;2023-07-16T04:57:22;2.08;;;1.48;;
11646;SDS011;5880;52.342;9.662;2023-07-16T04:59:48;2.55;;;1.55;;
11646;SDS011;5880;52.342;9.662;2023-07-16T05:02:14;2.72;;;1.60;;
11646;SDS011;5880;52.342;9.662;2023-07-16T05:04:42;2.60;;;1.40;;
11646;SDS011;5880;52.342;9.662;2023-07-16T05:07:09;1.48;;;1.30;;
11646;SDS011;5880;52.342;9.662;2023-07-16T05:09:35;2.08;;;1.35;;
11646;SDS011;5880;52.342;9.662;2023-07-16T05:12:01;1.70;;;1.40;;
11646;SDS011;5880;52.342;9.662;2023-07-16T05:14:27;2.00;;;1.40;;
11646;SDS011;5880;52.342;9.662;2023-07-16T05:16:54;1.50;;;1.40;;
11646;SDS011;5880;52.342;9.662;2023-07-16T05:19:21;1.67;;;1.33;;
11646;SDS011;5880;52.342;9.662;2023-07-16T05:21:47;2.33;;;1.50;;
11646;SDS011;5880;52.342;9.662;2023-07-16T05:24:13;2.58;;;1.50;;
11646;SDS011;5880;52.342;9.662;2023-07-16T05:26:39;2.45;;;1.33;;
11646;SDS011;5880;52.342;9.662;2023-07-16T05:29:04;2.13;;;1.33;;
11646;SDS011;5880;52.342;9.662;2023-07-16T05:31:30;2.08;;;1.30;;
11646;SDS011;5880;52.342;9.662;2023-07-16T05:33:56;1.20;;;1.10;;
11646;SDS011;5880;52.342;9.662;2023-07-16T05:36:22;1.63;;;1.30;;
11646;SDS011;5880;52.342;9.662;2023-07-16T05:38:47;1.63;;;1.25;;
11646;SDS011;5880;52.342;9.662;2023-07-16T05:41:13;2.03;;;1.63;;
11646;SDS011;5880;52.342;9.662;2023-07-16T05:43:39;1.50;;;1.30;;
11646;SDS011;5880;52.342;9.662;2023-07-16T05:46:04;2.08;;;1.40;;
11646;SDS011;5880;52.342;9.662;2023-07-16T05:48:30;1.48;;;1.38;;
11646;SDS011;5880;52.342;9.662;2023-07-16T05:50:56;1.83;;;1.40;;
11646;SDS011;5880;52.342;9.662;2023-07-16T05:53:22;2.97;;;1.48;;
11646;SDS011;5880;52.342;9.662;2023-07-16T05:55:48;1.40;;;1.30;;
11646;SDS011;5880;52.342;9.662;2023-07-16T05:58:14;1.95;;;1.58;;
11646;SDS011;5880;52.342;9.662;2023-07-16T06:00:41;1.63;;;1.40;;
11646;SDS011;5880;52.342;9.662;2023-07-16T06:03:07;1.65;;;1.50;;
11646;SDS011;5880;52.342;9.662;2023-07-16T06:05:32;2.13;;;1.52;;
11646;SDS011;5880;52.342;9.662;2023-07-16T06:07:59;2.45;;;1.42;;
11646;SDS011;5880;52.342;9.662;2023-07-16T06:10:26;2.50;;;1.63;;
11646;SDS011;5880;52.342;9.662;2023-07-16T06:12:52;1.40;;;1.30;;
11646;SDS011;5880;52.342;9.662;2023-07-16T06:15:17;1.52;;;1.27;;
11646;SDS011;5880;52.342;9.662;2023-07-16T06:17:43;1.55;;;1.25;;
11646;SDS011;5880;52.342;9.662;2023-07-16T06:20:09;2.00;;;1.30;;
11646;SDS011;5880;52.342;9.662;2023-07-16T06:22:35;2.35;;;1.60;;
11646;SDS011;5880;52.342;9.662;2023-07-16T06:25:01;1.42;;;1.33;;
11646;SDS011;5880;52.342;9.662;2023-07-16T06:27:27;1.30;;;1.10;;
11646;SDS011;5880;52.342;9.662;2023-07-16T06:29:52;2.10;;;1.40;;
11646;SDS011;5880;52.342;9.662;2023-07-16T06:32:18;2.90;;;1.50;;
11646;SDS011;5880;52.342;9.662;2023-07-16T06:34:44;2.28;;;1.50;;
11646;SDS011;5880;52.342;9.662;2023-07-16T06:37:09;1.33;;;1.23;;
11646;SDS011;5880;52.342;9.662;2023-07-16T06:39:35;1.45;;;1.30;;
11646;SDS011;5880;52.342;9.662;2023-07-16T06:42:01;2.03;;;1.60;;
11646;SDS011;5880;52.342;9.662;2023-07-16T06:44:26;1.85;;;1.38;;
11646;SDS011;5880;52.342;9.662;2023-07-16T06:46:52;1.77;;;1.30;;
11646;SDS011;5880;52.342;9.662;2023-07-16T06:49:18;1.42;;;1.33;;
11646;SDS011;5880;52.342;9.662;2023-07-16T06:51:44;2.42;;;1.67;;
11646;SDS011;5880;52.342;9.662;2023-07-16T06:54:10;1.73;;;1.38;;
11646;SDS011;5880;52.342;9.662;2023-07-16T06:56:35;1.63;;;1.42;;
11646;SDS011;5880;52.342;9.662;2023-07-16T06:59:01;1.50;;;1.40;;
11646;SDS011;5880;52.342;9.662;2023-07-16T07:01:27;2.30;;;1.45;;
11646;SDS011;5880;52.342;9.662;2023-07-16T07:03:53;2.75;;;1.55;;
11646;SDS011;5880;52.342;9.662;2023-07-16T07:06:19;1.40;;;1.30;;
11646;SDS011;5880;52.342;9.662;2023-07-16T07:08:46;1.92;;;1.60;;
11646;SDS011;5880;52.342;9.662;2023-07-16T07:11:12;2.63;;;1.63;;
11646;SDS011;5880;52.342;9.662;2023-07-16T07:13:38;2.70;;;1.73;;
11646;SDS011;5880;52.342;9.662;2023-07-16T07:16:03;2.63;;;1.73;;
11646;SDS011;5880;52.342;9.662;2023-07-16T07:18:29;2.58;;;1.52;;
11646;SDS011;5880;52.342;9.662;2023-07-16T07:20:55;2.00;;;1.80;;
11646;SDS011;5880;52.342;9.662;2023-07-16T07:23:21;4.25;;;1.75;;
11646;SDS011;5880;52.342;9.662;2023-07-16T07:25:50;2.25;;;1.52;;
11646;SDS011;5880;52.342;9.662;2023-07-16T07:28:16;1.58;;;1.48;;
11646;SDS011;5880;52.342;9.662;2023-07-16T07:30:43;2.20;;;1.70;;
11646;SDS011;5880;52.342;9.662;2023-07-16T07:33:10;3.60;;;2.00;;
11646;SDS011;5880;52.342;9.662;2023-07-16T07:35:36;6.30;;;1.95;;
11646;SDS011;5880;52.342;9.662;2023-07-16T07:38:02;2.55;;;1.95;;
11646;SDS011;5880;52.342;9.662;2023-07-16T07:40:27;3.40;;;1.80;;
11646;SDS011;5880;52.342;9.662;2023-07-16T07:42:53;2.30;;;1.95;;
11646;SDS011;5880;52.342;9.662;2023-07-16T07:45:18;2.90;;;2.13;;
11646;SDS011;5880;52.342;9.662;2023-07-16T07:47:44;2.63;;;1.85;;
11646;SDS011;5880;52.342;9.662;2023-07-16T07:50:10;3.53;;;2.08;;
11646;SDS011;5880;52.342;9.662;2023-07-16T07:52:36;2.75;;;2.15;;
11646;SDS011;5880;52.342;9.662;2023-07-16T07:55:01;2.33;;;1.60;;
11646;SDS011;5880;52.342;9.662;2023-07-16T07:57:28;3.72;;;2.20;;
11646;SDS011;5880;52.342;9.662;2023-07-16T07:59:54;3.00;;;2.20;;
11646;SDS011;5880;52.342;9.662;2023-07-16T08:02:22;4.82;;;2.28;;
11646;SDS011;5880;52.342;9.662;2023-07-16T08:04:50;4.03;;;2.45;;
11646;SDS011;5880;52.342;9.662;2023-07-16T08:07:17;2.55;;;2.15;;
11646;SDS011;5880;52.342;9.662;2023-07-16T08:09:43;3.28;;;2.20;;
11646;SDS011;5880;52.342;9.662;2023-07-16T08:12:08;3.90;;;2.30;;
11646;SDS011;5880;52.342;9.662;2023-07-16T08:14:34;2.60;;;2.10;;
11646;SDS011;5880;52.342;9.662;2023-07-16T08:17:00;3.65;;;1.90;;
11646;SDS011;5880;52.342;9.662;2023-07-16T08:19:25;3.00;;;2.20;;
11646;SDS011;5880;52.342;9.662;2023-07-16T08:21:51;3.33;;;2.30;;
11646;SDS011;5880;52.342;9.662;2023-07-16T08:24:17;3.47;;;2.30;;
11646;SDS011;5880;52.342;9.662;2023-07-16T08:26:43;2.33;;;2.00;;
11646;SDS011;5880;52.342;9.662;2023-07-16T08:29:10;6.00;;;2.20;;
11646;SDS011;5880;52.342;9.662;2023-07-16T08:31:35;4.07;;;2.38;;
11646;SDS011;5880;52.342;9.662;2023-07-16T08:34:01;3.25;;;2.38;;
11646;SDS011;5880;52.342;9.662;2023-07-16T08:36:27;4.90;;;2.13;;
11646;SDS011;5880;52.342;9.662;2023-07-16T08:38:52;3.67;;;2.10;;
11646;SDS011;5880;52.342;9.662;2023-07-16T08:41:18;2.97;;;2.20;;
11646;SDS011;5880;52.342;9.662;2023-07-16T08:43:47;3.92;;;2.40;;
11646;SDS011;5880;52.342;9.662;2023-07-16T08:46:15;3.17;;;2.10;;
11646;SDS011;5880;52.342;9.662;2023-07-16T08:48:40;2.42;;;1.88;;
11646;SDS011;5880;52.342;9.662;2023-07-16T08:51:07;3.20;;;2.17;;
11646;SDS011;5880;52.342;9.662;2023-07-16T08:53:36;2.03;;;1.80;;
11646;SDS011;5880;52.342;9.662;2023-07-16T08:56:02;2.20;;;2.00;;
11646;SDS011;5880;52.342;9.662;2023-07-16T08:58:30;2.42;;;1.90;;
11646;SDS011;5880;52.342;9.662;2023-07-16T09:00:56;2.40;;;1.65;;
11646;SDS011;5880;52.342;9.662;2023-07-16T09:03:25;2.40;;;2.00;;
11646;SDS011;5880;52.342;9.662;2023-07-16T09:05:51;3.22;;;1.98;;
11646;SDS011;5880;52.342;9.662;2023-07-16T09:08:19;3.08;;;1.88;;
11646;SDS011;5880;52.342;9.662;2023-07-16T09:10:52;2.25;;;1.92;;
11646;SDS011;5880;52.342;9.662;2023-07-16T09:13:20;2.25;;;1.73;;
11646;SDS011;5880;52.342;9.662;2023-07-16T09:15:50;2.78;;;2.00;;
11646;SDS011;5880;52.342;9.662;2023-07-16T09:18:20;2.72;;;1.83;;
11646;SDS011;5880;52.342;9.662;2023-07-16T09:20:47;2.30;;;2.05;;
11646;SDS011;5880;52.342;9.662;2023-07-16T09:23:19;1.85;;;1.75;;
11646;SDS011;5880;52.342;9.662;2023-07-16T09:25:46;3.15;;;2.00;;
11646;SDS011;5880;52.342;9.662;2023-07-16T09:28:15;2.80;;;1.88;;
11646;SDS011;5880;52.342;9.662;2023-07-16T09:30:44;4.30;;;2.30;;
11646;SDS011;5880;52.342;9.662;2023-07-16T09:33:12;2.20;;;1.73;;
11646;SDS011;5880;52.342;9.662;2023-07-16T09:35:44;3.67;;;2.15;;
11646;SDS011;5880;52.342;9.662;2023-07-16T09:38:14;2.25;;;1.73;;
11646;SDS011;5880;52.342;9.662;2023-07-16T09:40:41;3.22;;;1.90;;
11646;SDS011;5880;52.342;9.662;2023-07-16T09:43:09;2.45;;;2.10;;
11646;SDS011;5880;52.342;9.662;2023-07-16T09:45:38;2.78;;;1.95;;
11646;SDS011;5880;52.342;9.662;2023-07-16T09:48:04;2.83;;;1.98;;
11646;SDS011;5880;52.342;9.662;2023-07-16T09:50:33;2.28;;;1.80;;
11646;SDS011;5880;52.342;9.662;2023-07-16T09:53:00;2.80;;;1.73;;
11646;SDS011;5880;52.342;9.662;2023-07-16T09:55:28;3.35;;;1.95;;
11646;SDS011;5880;52.342;9.662;2023-07-16T09:57:59;1.88;;;1.50;;
11646;SDS011;5880;52.342;9.662;2023-07-16T10:00:33;2.17;;;1.88;;
11646;SDS011;5880;52.342;9.662;2023-07-16T10:03:02;2.03;;;1.80;;
11646;SDS011;5880;52.342;9.662;2023-07-16T10:05:30;2.13;;;1.73;;
11646;SDS011;5880;52.342;9.662;2023-07-16T10:07:57;2.47;;;1.90;;
11646;SDS011;5880;52.342;9.662;2023-07-16T10:10:37;3.33;;;2.13;;
11646;SDS011;5880;52.342;9.662;2023-07-16T10:13:06;2.25;;;1.80;;
11646;SDS011;5880;52.342;9.662;2023-07-16T10:15:33;2.63;;;1.70;;
11646;SDS011;5880;52.342;9.662;2023-07-16T10:17:59;2.40;;;1.80;;
11646;SDS011;5880;52.342;9.662;2023-07-16T10:20:29;2.42;;;2.03;;
11646;SDS011;5880;52.342;9.662;2023-07-16T10:23:10;1.85;;;1.75;;
11646;SDS011;5880;52.342;9.662;2023-07-16T10:25:59;2.60;;;1.80;;
11646;SDS011;5880;52.342;9.662;2023-07-16T10:28:30;2.78;;;2.20;;
11646;SDS011;5880;52.342;9.662;2023-07-16T10:31:03;1.88;;;1.75;;
11646;SDS011;5880;52.342;9.662;2023-07-16T10:33:29;2.28;;;1.90;;
11646;SDS011;5880;52.342;9.662;2023-07-16T10:35:56;2.15;;;1.95;;
11646;SDS011;5880;52.342;9.662;2023-07-16T10:38:26;2.55;;;2.15;;
11646;SDS011;5880;52.342;9.662;2023-07-16T10:40:51;2.33;;;2.13;;
11646;SDS011;5880;52.342;9.662;2023-07-16T10:43:17;2.30;;;2.00;;
11646;SDS011;5880;52.342;9.662;2023-07-16T10:45:43;3.30;;;2.08;;
11646;SDS011;5880;52.342;9.662;2023-07-16T10:48:12;2.83;;;2.20;;
11646;SDS011;5880;52.342;9.662;2023-07-16T10:50:38;2.33;;;1.85;;
11646;SDS011;5880;52.342;9.662;2023-07-16T10:53:04;2.15;;;1.85;;
11646;SDS011;5880;52.342;9.662;2023-07-16T10:55:30;2.92;;;2.47;;
11646;SDS011;5880;52.342;9.662;2023-07-16T10:57:57;2.30;;;2.05;;
11646;SDS011;5880;52.342;9.662;2023-07-16T11:00:23;2.85;;;2.10;;
11646;SDS011;5880;52.342;9.662;2023-07-16T11:02:50;2.88;;;2.08;;
11646;SDS011;5880;52.342;9.662;2023-07-16T11:05:17;2.28;;;1.80;;
11646;SDS011;5880;52.342;9.662;2023-07-16T11:07:45;2.50;;;2.10;;
11646;SDS011;5880;52.342;9.662;2023-07-16T11:10:12;2.45;;;2.22;;
11646;SDS011;5880;52.342;9.662;2023-07-16T11:12:41;3.17;;;1.85;;
11646;SDS011;5880;52.342;9.662;2023-07-16T11:15:07;3.28;;;2.13;;
11646;SDS011;5880;52.342;9.662;2023-07-16T11:17:34;2.13;;;1.92;;
11646;SDS011;5880;52.342;9.662;2023-07-16T11:20:02;2.35;;;2.13;;
11646;SDS011;5880;52.342;9.662;2023-07-16T11:22:31;2.35;;;2.15;;
11646;SDS011;5880;52.342;9.662;2023-07-16T11:24:58;2.40;;;2.20;;
11646;SDS011;5880;52.342;9.662;2023-07-16T11:27:25;2.50;;;2.20;;
11646;SDS011;5880;52.342;9.662;2023-07-16T11:29:53;2.30;;;2.08;;
11646;SDS011;5880;52.342;9.662;2023-07-16T11:32:28;2.30;;;2.08;;
11646;SDS011;5880;52.342;9.662;2023-07-16T11:35:07;5.68;;;2.50;;
11646;SDS011;5880;52.342;9.662;2023-07-16T11:37:34;3.45;;;2.30;;
11646;SDS011;5880;52.342;9.662;2023-07-16T11:40:02;3.03;;;2.17;;
11646;SDS011;5880;52.342;9.662;2023-07-16T11:42:31;3.45;;;2.50;;
11646;SDS011;5880;52.342;9.662;2023-07-16T11:45:04;2.75;;;2.17;;
11646;SDS011;5880;52.342;9.662;2023-07-16T11:47:40;2.38;;;2.05;;
11646;SDS011;5880;52.342;9.662;2023-07-16T11:50:06;2.10;;;1.90;;
11646;SDS011;5880;52.342;9.662;2023-07-16T11:52:33;3.70;;;2.08;;
11646;SDS011;5880;52.342;9.662;2023-07-16T11:54:58;2.55;;;2.10;;
11646;SDS011;5880;52.342;9.662;2023-07-16T11:57:25;2.25;;;2.05;;
11646;SDS011;5880;52.342;9.662;2023-07-16T11:59:51;3.40;;;2.05;;
11646;SDS011;5880;52.342;9.662;2023-07-16T12:02:16;3.75;;;1.83;;
11646;SDS011;5880;52.342;9.662;2023-07-16T12:04:43;2.67;;;2.08;;
11646;SDS011;5880;52.342;9.662;2023-07-16T12:07:09;2.13;;;1.88;;
11646;SDS011;5880;52.342;9.662;2023-07-16T12:09:34;2.60;;;2.03;;
11646;SDS011;5880;52.342;9.662;2023-07-16T12:12:00;2.50;;;2.00;;
11646;SDS011;5880;52.342;9.662;2023-07-16T12:14:26;2.75;;;2.10;;
11646;SDS011;5880;52.342;9.662;2023-07-16T12:16:52;3.13;;;2.10;;
11646;SDS011;5880;52.342;9.662;2023-07-16T12:19:18;3.05;;;2.20;;
11646;SDS011;5880;52.342;9.662;2023-07-16T12:21:43;2.75;;;2.08;;
11646;SDS011;5880;52.342;9.662;2023-07-16T12:24:10;3.17;;;2.17;;
11646;SDS011;5880;52.342;9.662;2023-07-16T12:26:36;2.17;;;1.90;;
11646;SDS011;5880;52.342;9.662;2023-07-16T12:29:02;3.08;;;2.00;;
11646;SDS011;5880;52.342;9.662;2023-07-16T12:31:29;3.33;;;2.08;;
11646;SDS011;5880;52.342;9.662;2023-07-16T12:33:59;2.72;;;1.92;;
11646;SDS011;5880;52.342;9.662;2023-07-16T12:36:29;2.00;;;1.90;;
11646;SDS011;5880;52.342;9.662;2023-07-16T12:38:55;2.15;;;1.95;;
11646;SDS011;5880;52.342;9.662;2023-07-16T12:41:21;1.95;;;1.77;;
11646;SDS011;5880;52.342;9.662;2023-07-16T12:43:47;1.90;;;1.67;;
11646;SDS011;5880;52.342;9.662;2023-07-16T12:46:12;2.42;;;1.77;;
11646;SDS011;5880;52.342;9.662;2023-07-16T12:48:38;2.00;;;1.80;;
11646;SDS011;5880;52.342;9.662;2023-07-16T12:51:04;2.17;;;1.80;;
11646;SDS011;5880;52.342;9.662;2023-07-16T12:53:29;1.77;;;1.67;;
11646;SDS011;5880;52.342;9.662;2023-07-16T12:55:55;2.00;;;1.77;;
11646;SDS011;5880;52.342;9.662;2023-07-16T12:58:21;1.83;;;1.70;;
11646;SDS011;5880;52.342;9.662;2023-07-16T13:00:46;1.80;;;1.70;;
11646;SDS011;5880;52.342;9.662;2023-07-16T13:03:12;2.00;;;1.80;;
11646;SDS011;5880;52.342;9.662;2023-07-16T13:05:41;2.53;;;1.92;;
11646;SDS011;5880;52.342;9.662;2023-07-16T13:08:08;1.85;;;1.70;;
11646;SDS011;5880;52.342;9.662;2023-07-16T13:10:34;1.75;;;1.65;;
11646;SDS011;5880;52.342;9.662;2023-07-16T13:13:00;1.50;;;1.40;;
11646;SDS011;5880;52.342;9.662;2023-07-16T13:15:28;1.90;;;1.73;;
11646;SDS011;5880;52.342;9.662;2023-07-16T13:17:54;2.13;;;1.90;;
11646;SDS011;5880;52.342;9.662;2023-07-16T13:20:20;2.90;;;1.92;;
11646;SDS011;5880;52.342;9.662;2023-07-16T13:22:47;2.15;;;1.85;;
11646;SDS011;5880;52.342;9.662;2023-07-16T13:25:13;2.33;;;1.90;;
11646;SDS011;5880;52.342;9.662;2023-07-16T13:27:39;2.40;;;1.80;;
11646;SDS011;5880;52.342;9.662;2023-07-16T13:30:05;2.88;;;2.13;;
11646;SDS011;5880;52.342;9.662;2023-07-16T13:32:32;2.17;;;1.88;;
11646;SDS011;5880;52.342;9.662;2023-07-16T13:34:58;2.20;;;2.00;;
11646;SDS011;5880;52.342;9.662;2023-07-16T13:37:24;2.97;;;2.05;;
11646;SDS011;5880;52.342;9.662;2023-07-16T13:39:49;2.38;;;2.00;;
11646;SDS011;5880;52.342;9.662;2023-07-16T13:42:15;2.30;;;2.08;;
11646;SDS011;5880;52.342;9.662;2023-07-16T13:44:41;2.17;;;1.98;;
11646;SDS011;5880;52.342;9.662;2023-07-16T13:47:06;3.38;;;2.20;;
11646;SDS011;5880;52.342;9.662;2023-07-16T13:49:32;3.50;;;2.08;;
11646;SDS011;5880;52.342;9.662;2023-07-16T13:51:58;2.47;;;2.03;;
11646;SDS011;5880;52.342;9.662;2023-07-16T13:54:23;2.17;;;1.98;;
11646;SDS011;5880;52.342;9.662;2023-07-16T13:56:49;2.42;;;2.08;;
11646;SDS011;5880;52.342;9.662;2023-07-16T13:59:15;2.22;;;2.00;;
11646;SDS011;5880;52.342;9.662;2023-07-16T14:01:41;2.30;;;2.00;;
11646;SDS011;5880;52.342;9.662;2023-07-16T14:04:07;2.45;;;2.10;;
11646;SDS011;5880;52.342;9.662;2023-07-16T14:06:33;2.75;;;2.25;;
11646;SDS011;5880;52.342;9.662;2023-07-16T14:08:59;2.20;;;2.00;;
11646;SDS011;5880;52.342;9.662;2023-07-16T14:11:25;2.97;;;2.20;;
11646;SDS011;5880;52.342;9.662;2023-07-16T14:13:51;2.38;;;2.10;;
11646;SDS011;5880;52.342;9.662;2023-07-16T14:16:18;2.10;;;1.90;;
11646;SDS011;5880;52.342;9.662;2023-07-16T14:18:45;2.95;;;1.98;;
11646;SDS011;5880;52.342;9.662;2023-07-16T14:21:16;2.22;;;2.03;;
11646;SDS011;5880;52.342;9.662;2023-07-16T14:23:41;1.95;;;1.85;;
11646;SDS011;5880;52.342;9.662;2023-07-16T14:26:07;2.78;;;2.53;;
11646;SDS011;5880;52.342;9.662;2023-07-16T14:28:33;2.40;;;2.20;;
11646;SDS011;5880;52.342;9.662;2023-07-16T14:30:58;2.50;;;2.22;;
11646;SDS011;5880;52.342;9.662;2023-07-16T14:33:24;2.47;;;2.28;;
11646;SDS011;5880;52.342;9.662;2023-07-16T14:35:50;3.33;;;2.40;;
11646;SDS011;5880;52.342;9.662;2023-07-16T14:38:15;2.45;;;2.25;;
11646;SDS011;5880;52.342;9.662;2023-07-16T14:40:41;2.25;;;2.05;;
11646;SDS011;5880;52.342;9.662;2023-07-16T14:43:07;2.67;;;2.17;;
11646;SDS011;5880;52.342;9.662;2023-07-16T14:45:34;2.40;;;2.20;;
11646;SDS011;5880;52.342;9.662;2023-07-16T14:48:00;2.15;;;1.95;;
11646;SDS011;5880;52.342;9.662;2023-07-16T14:50:25;2.40;;;2.20;;
11646;SDS011;5880;52.342;9.662;2023-07-16T14:52:51;2.53;;;2.30;;
11646;SDS011;5880;52.342;9.662;2023-07-16T14:55:18;3.00;;;2.35;;
11646;SDS011;5880;52.342;9.662;2023-07-16T14:57:44;2.60;;;2.40;;
11646;SDS011;5880;52.342;9.662;2023-07-16T15:00:10;2.72;;;2.25;;
11646;SDS011;5880;52.342;9.662;2023-07-16T15:02:36;2.67;;;2.10;;
11646;SDS011;5880;52.342;9.662;2023-07-16T15:05:03;3.47;;;2.40;;